createdAt,value
2023-05-01T00:01:49.600Z,101912.42
2023-05-01T00:05:27.796Z,101911.88
2023-05-01T00:09:04.984Z,101910.09
2023-05-01T00:12:42.512Z,101904.70
2023-05-01T00:16:20.157Z,101899.62
2023-05-01T00:19:58.563Z,101896.66
2023-05-01T00:23:35.503Z,101899.77
2023-05-01T00:27:13.457Z,101903.90
2023-05-01T00:30:50.796Z,101904.14
2023-05-01T00:34:29.118Z,101898.73
2023-05-01T00:38:05.957Z,101887.02
2023-05-01T00:41:43.915Z,101892.37
2023-05-01T00:45:21.396Z,101897.98
2023-05-01T00:48:59.307Z,101903.30
2023-05-01T00:52:37.426Z,101907.48
2023-05-01T00:56:16.153Z,101902.20
2023-05-01T00:59:52.191Z,101902.42
2023-05-01T01:03:31.615Z,101904.66
2023-05-01T01:07:24.734Z,101906.38
2023-05-01T01:11:04.008Z,101906.28
2023-05-01T01:14:33.207Z,101903.20
2023-05-01T01:18:18.172Z,101903.27
2023-05-01T01:21:45.346Z,101901.67
2023-05-01T01:25:34.802Z,101904.27
2023-05-01T01:29:12.396Z,101904.39
2023-05-01T01:33:09.735Z,101909.89
2023-05-01T01:36:47.967Z,101909.20
2023-05-01T01:40:08.170Z,101914.11
2023-05-01T01:43:47.979Z,101909.85
2023-05-01T01:47:24.213Z,101900.56
2023-05-01T01:50:59.019Z,101899.90
2023-05-01T01:54:37.897Z,101897.48
2023-05-01T01:58:13.659Z,101893.03
2023-05-01T02:01:50.920Z,101891.90
2023-05-01T02:05:27.441Z,101895.13
2023-05-01T02:09:07.737Z,101888.98
2023-05-01T02:12:48.763Z,101888.36
2023-05-01T02:16:23.278Z,101884.77
2023-05-01T02:19:58.098Z,101884.69
2023-05-01T02:23:36.464Z,101883.34
2023-05-01T02:27:24.721Z,101880.48
2023-05-01T02:30:50.843Z,101880.82
2023-05-01T02:34:28.264Z,101879.11
2023-05-01T02:38:06.397Z,101877.65
2023-05-01T02:41:44.959Z,101873.08
2023-05-01T02:45:23.869Z,101871.15
2023-05-01T02:49:01.880Z,101864.88
2023-05-01T02:52:37.743Z,101867.00
2023-05-01T02:56:14.722Z,101870.58
2023-05-01T02:59:51.615Z,101865.93
2023-05-01T03:03:29.783Z,101863.55
2023-05-01T03:07:06.986Z,101863.64
2023-05-01T03:10:44.728Z,101860.71
2023-05-01T03:14:22.521Z,101856.44
2023-05-01T03:18:00.332Z,101853.37
2023-05-01T03:21:38.612Z,101852.14
2023-05-01T03:25:15.746Z,101853.05
2023-05-01T03:28:53.123Z,101854.36
2023-05-01T03:32:31.106Z,101852.45
2023-05-01T03:36:12.382Z,101851.42
2023-05-01T03:39:46.776Z,101854.88
2023-05-01T03:43:24.953Z,101853.95
2023-05-01T03:47:01.913Z,101850.80
2023-05-01T03:50:39.135Z,101857.38
2023-05-01T03:54:16.842Z,101860.90
2023-05-01T03:57:54.556Z,101864.92
2023-05-01T04:01:35.006Z,101863.94
2023-05-01T04:05:10.360Z,101860.80
2023-05-01T04:08:47.460Z,101858.15
2023-05-01T04:12:25.028Z,101853.09
2023-05-01T04:16:03.232Z,101853.31
2023-05-01T04:19:41.356Z,101856.98
2023-05-01T04:23:18.435Z,101858.88
2023-05-01T04:26:56.020Z,101858.91
2023-05-01T04:30:33.677Z,101856.45
2023-05-01T04:34:11.507Z,101852.98
2023-05-01T04:37:48.884Z,101849.63
2023-05-01T04:41:26.947Z,101852.63
2023-05-01T04:45:04.846Z,101851.80
2023-05-01T04:48:42.258Z,101859.02
2023-05-01T04:52:19.909Z,101859.80
2023-05-01T04:55:57.543Z,101863.15
2023-05-01T05:03:12.936Z,101866.45
2023-05-01T05:06:50.507Z,101868.09
2023-05-01T05:10:27.901Z,101872.16
2023-05-01T05:14:05.732Z,101874.41
2023-05-01T05:17:43.054Z,101873.67
2023-05-01T05:21:21.145Z,101870.96
2023-05-01T05:25:04.540Z,101869.34
2023-05-01T05:28:36.231Z,101873.69
2023-05-01T05:32:14.163Z,101874.91
2023-05-01T05:35:52.669Z,101879.49
2023-05-01T05:39:31.064Z,101873.75
2023-05-01T05:43:06.622Z,101881.80
2023-05-01T05:46:45.269Z,101880.66
2023-05-01T05:50:24.107Z,101885.64
2023-05-01T05:54:00.060Z,101884.55
2023-05-01T05:57:38.163Z,101882.52
2023-05-01T06:01:15.206Z,101882.57
2023-05-01T06:04:53.402Z,101889.33
2023-05-01T06:12:08.302Z,101887.59
2023-05-01T06:19:23.718Z,101883.46
2023-05-01T06:23:01.545Z,101887.15
2023-05-01T06:33:54.418Z,101888.70
2023-05-01T06:37:36.636Z,101885.32
2023-05-01T06:41:13.497Z,101888.00
2023-05-01T06:48:28.870Z,101885.34
2023-05-01T06:52:07.012Z,101881.58
2023-05-01T06:55:44.678Z,101879.59
2023-05-01T06:59:21.838Z,101876.80
2023-05-01T07:02:59.647Z,101877.27
2023-05-01T07:06:37.643Z,101876.36
2023-05-01T07:10:15.742Z,101873.86
2023-05-01T07:13:54.802Z,101869.34
2023-05-01T07:17:31.388Z,101866.27
2023-05-01T07:21:10.240Z,101864.20
2023-05-01T07:24:45.853Z,101861.29
2023-05-01T07:28:23.463Z,101864.77
2023-05-01T07:32:01.700Z,101865.39
2023-05-01T07:35:38.667Z,101870.02
2023-05-01T07:39:17.901Z,101865.92
2023-05-01T07:42:54.667Z,101862.52
2023-05-01T07:46:31.873Z,101862.48
2023-05-01T07:50:13.574Z,101858.29
2023-05-01T07:53:48.048Z,101861.12
2023-05-01T07:57:25.547Z,101858.34
2023-05-01T08:01:03.103Z,101862.25
2023-05-01T08:04:41.930Z,101860.52
2023-05-01T08:08:37.090Z,101857.34
2023-05-01T08:11:55.429Z,101858.04
2023-05-01T08:15:33.612Z,101860.14
2023-05-01T08:22:48.670Z,101857.70
2023-05-01T08:26:26.804Z,101859.91
2023-05-01T08:30:04.462Z,101861.42
2023-05-01T08:33:43.475Z,101857.77
2023-05-01T08:37:19.976Z,101856.45
2023-05-01T08:40:59.104Z,101858.66
2023-05-01T08:44:40.055Z,101862.83
2023-05-01T08:48:13.411Z,101859.52
2023-05-01T08:51:53.531Z,101853.96
2023-05-01T08:55:30.704Z,101853.89
2023-05-01T08:59:06.099Z,101851.34
2023-05-01T09:02:44.599Z,101848.75
2023-05-01T09:06:22.804Z,101850.39
2023-05-01T09:09:58.744Z,101848.59
2023-05-01T09:13:36.409Z,101844.80
2023-05-01T09:17:14.414Z,101845.98
2023-05-01T09:20:51.630Z,101844.28
2023-05-01T09:24:30.270Z,101844.48
2023-05-01T09:28:07.947Z,101842.73
2023-05-01T09:31:44.884Z,101833.59
2023-05-01T09:35:22.466Z,101835.22
2023-05-01T09:39:01.580Z,101834.19
2023-05-01T09:42:49.656Z,101828.56
2023-05-01T09:46:15.614Z,101824.86
2023-05-01T09:49:57.235Z,101820.44
2023-05-01T09:57:08.138Z,101817.80
2023-05-01T10:00:52.237Z,101816.03
2023-05-01T10:04:35.455Z,101812.67
2023-05-01T10:08:05.870Z,101810.91
2023-05-01T10:11:54.618Z,101810.38
2023-05-01T10:15:25.661Z,101809.33
2023-05-01T10:18:56.850Z,101804.01
2023-05-01T10:22:32.168Z,101799.27
2023-05-01T10:26:15.014Z,101800.15
2023-05-01T10:30:09.458Z,101796.45
2023-05-01T10:33:25.388Z,101791.32
2023-05-01T10:37:08.160Z,101784.43
2023-05-01T10:40:40.810Z,101778.45
2023-05-01T10:44:23.273Z,101771.39
2023-05-01T10:47:55.603Z,101769.45
2023-05-01T10:51:33.605Z,101758.34
2023-05-01T10:55:34.267Z,101753.05
2023-05-01T10:59:06.468Z,101754.45
2023-05-01T11:02:26.901Z,101753.74
2023-05-01T11:06:04.297Z,101749.16
2023-05-01T11:09:51.421Z,101741.38
2023-05-01T11:13:57.953Z,101737.51
2023-05-01T11:16:59.360Z,101727.62
2023-05-01T11:20:36.977Z,101723.92
2023-05-01T11:24:14.847Z,101715.23
2023-05-01T11:27:54.372Z,101712.56
2023-05-01T11:31:30.080Z,101712.56
2023-05-01T11:35:16.809Z,101709.41
2023-05-01T11:38:52.722Z,101705.16
2023-05-01T11:42:22.997Z,101698.25
2023-05-01T11:46:04.228Z,101689.16
2023-05-01T11:49:39.067Z,101685.48
2023-05-01T11:53:16.621Z,101685.45
2023-05-01T11:57:03.874Z,101682.83
2023-05-01T12:00:34.885Z,101672.05
2023-05-01T12:04:09.174Z,101670.23
2023-05-01T12:07:46.568Z,101666.34
2023-05-01T12:11:24.213Z,101664.79
2023-05-01T12:15:02.779Z,101656.14
2023-05-01T12:18:39.798Z,101650.50
2023-05-01T12:22:17.512Z,101649.97
2023-05-01T12:29:44.862Z,101638.67
2023-05-01T12:33:15.864Z,101634.17
2023-05-01T12:36:55.180Z,101630.30
2023-05-01T12:40:27.525Z,101620.38
2023-05-01T12:44:23.925Z,101614.93
2023-05-01T12:47:41.282Z,101612.13
2023-05-01T12:55:07.506Z,101596.40
2023-05-01T12:58:38.206Z,101587.20
2023-05-01T13:02:18.529Z,101579.95
2023-05-01T13:06:01.932Z,101574.23
2023-05-01T13:09:32.817Z,101567.40
2023-05-01T13:13:05.122Z,101556.11
2023-05-01T13:16:49.801Z,101546.22
2023-05-01T13:20:29.364Z,101536.69
2023-05-01T13:24:00.375Z,101536.67
2023-05-01T13:27:54.276Z,101532.61
2023-05-01T13:31:15.150Z,101523.08
2023-05-01T13:34:51.653Z,101518.61
2023-05-01T13:38:33.136Z,101513.39
2023-05-01T13:42:06.665Z,101504.50
2023-05-01T13:45:44.162Z,101501.68
2023-05-01T13:49:23.066Z,101503.08
2023-05-01T13:53:00.644Z,101502.50
2023-05-01T13:56:38.904Z,101492.45
2023-05-01T14:00:18.049Z,101478.40
2023-05-01T14:03:57.362Z,101464.87
2023-05-01T14:07:30.258Z,101464.29
2023-05-01T14:11:09.897Z,101454.98
2023-05-01T14:14:49.669Z,101445.66
2023-05-01T14:18:23.051Z,101445.45
2023-05-01T14:22:02.912Z,101444.07
2023-05-01T14:25:38.808Z,101434.85
2023-05-01T14:29:26.235Z,101428.73
2023-05-01T14:32:54.637Z,101423.48
2023-05-01T14:36:32.802Z,101410.90
2023-05-01T14:40:12.987Z,101409.91
2023-05-01T14:43:47.907Z,101412.58
2023-05-01T14:47:24.529Z,101408.16
2023-05-01T14:51:04.936Z,101399.17
2023-05-01T14:54:47.004Z,101394.77
2023-05-01T14:58:17.855Z,101393.73
2023-05-01T15:01:55.350Z,101389.13
2023-05-01T15:05:33.789Z,101378.13
2023-05-01T15:09:10.934Z,101372.77
2023-05-01T15:12:48.356Z,101369.39
2023-05-01T15:16:25.857Z,101367.48
2023-05-01T15:20:03.964Z,101365.02
2023-05-01T15:23:45.396Z,101360.59
2023-05-01T15:27:19.289Z,101355.96
2023-05-01T15:30:56.524Z,101350.66
2023-05-01T15:34:34.489Z,101341.00
2023-05-01T15:38:12.990Z,101333.97
2023-05-01T15:41:49.756Z,101335.84
2023-05-01T15:45:28.063Z,101324.75
2023-05-01T15:49:09.158Z,101319.99
2023-05-01T15:52:42.676Z,101316.48
2023-05-01T15:56:20.483Z,101312.11
2023-05-01T15:59:59.980Z,101308.19
2023-05-01T16:03:38.234Z,101301.11
2023-05-01T16:07:14.530Z,101301.20
2023-05-01T16:10:51.786Z,101288.54
2023-05-01T16:14:29.168Z,101283.77
2023-05-01T16:18:07.492Z,101279.88
2023-05-01T16:21:44.446Z,101281.46
2023-05-01T16:25:22.165Z,101280.21
2023-05-01T16:29:01.885Z,101275.80
2023-05-01T16:32:39.756Z,101276.17
2023-05-01T16:36:17.354Z,101269.84
2023-05-01T16:39:52.914Z,101269.50
2023-05-01T16:43:30.533Z,101270.20
2023-05-01T16:47:12.725Z,101258.96
2023-05-01T16:50:45.795Z,101259.85
2023-05-01T16:54:32.369Z,101251.05
2023-05-01T16:58:00.814Z,101247.55
2023-05-01T17:01:38.725Z,101242.27
2023-05-01T17:05:19.066Z,101239.63
2023-05-01T17:08:55.009Z,101239.09
2023-05-01T17:12:32.160Z,101241.52
2023-05-01T17:16:09.076Z,101244.31
2023-05-01T17:19:46.715Z,101245.52
2023-05-01T17:23:28.181Z,101243.73
2023-05-01T17:27:03.349Z,101241.94
2023-05-01T17:30:40.085Z,101235.58
2023-05-01T17:34:17.376Z,101234.86
2023-05-01T17:37:55.545Z,101235.02
2023-05-01T17:41:32.678Z,101231.48
2023-05-01T17:45:11.629Z,101223.75
2023-05-01T17:48:48.922Z,101224.42
2023-05-01T17:52:25.989Z,101221.76
2023-05-01T17:56:03.975Z,101224.39
2023-05-01T17:59:41.389Z,101224.92
2023-05-01T18:03:19.029Z,101225.66
2023-05-01T18:06:56.995Z,101219.72
2023-05-01T18:10:34.295Z,101217.09
2023-05-01T18:14:11.924Z,101219.73
2023-05-01T18:17:49.605Z,101219.39
2023-05-01T18:21:27.816Z,101220.61
2023-05-01T18:25:06.545Z,101224.45
2023-05-01T18:28:42.917Z,101223.19
2023-05-01T18:32:20.070Z,101216.13
2023-05-01T18:35:58.475Z,101216.80
2023-05-01T18:39:35.711Z,101212.91
2023-05-01T18:43:14.437Z,101214.29
2023-05-01T18:47:09.826Z,101210.05
2023-05-01T18:50:29.054Z,101213.02
2023-05-01T18:54:08.020Z,101211.98
2023-05-01T18:57:44.353Z,101211.80
2023-05-01T19:01:23.728Z,101210.08
2023-05-01T19:04:59.870Z,101211.46
2023-05-01T19:08:37.634Z,101210.73
2023-05-01T19:12:16.697Z,101205.98
2023-05-01T19:15:53.738Z,101201.92
2023-05-01T19:19:30.548Z,101204.02
2023-05-01T19:23:08.399Z,101204.55
2023-05-01T19:26:45.677Z,101202.42
2023-05-01T19:30:23.220Z,101204.18
2023-05-01T19:34:01.559Z,101201.56
2023-05-01T19:37:40.172Z,101206.82
2023-05-01T19:41:16.544Z,101209.27
2023-05-01T19:44:54.129Z,101209.23
2023-05-01T19:48:32.075Z,101205.86
2023-05-01T19:52:10.395Z,101202.33
2023-05-01T19:55:48.215Z,101204.44
2023-05-01T19:59:24.824Z,101200.56
2023-05-01T20:03:02.685Z,101195.60
2023-05-01T20:06:40.368Z,101191.30
2023-05-01T20:10:17.768Z,101188.05
2023-05-01T20:13:55.407Z,101180.75
2023-05-01T20:17:34.425Z,101170.70
2023-05-01T20:21:11.320Z,101169.21
2023-05-01T20:24:48.107Z,101176.49
2023-05-01T20:28:25.966Z,101178.02
2023-05-01T20:32:06.202Z,101172.24
2023-05-01T20:35:41.770Z,101166.60
2023-05-01T20:39:19.266Z,101164.70
2023-05-01T20:42:59.558Z,101157.89
2023-05-01T20:46:34.668Z,101157.05
2023-05-01T20:50:12.258Z,101156.00
2023-05-01T20:53:49.625Z,101159.34
2023-05-01T20:57:28.033Z,101158.13
2023-05-01T21:01:05.468Z,101161.45
2023-05-01T21:04:43.443Z,101161.75
2023-05-01T21:08:20.397Z,101163.33
2023-05-01T21:11:57.969Z,101165.40
2023-05-01T21:15:35.776Z,101161.73
2023-05-01T21:19:15.455Z,101162.45
2023-05-01T21:22:50.867Z,101168.27
2023-05-01T21:26:29.769Z,101166.71
2023-05-01T21:30:07.212Z,101161.98
2023-05-01T21:33:45.865Z,101154.63
2023-05-01T21:37:21.462Z,101156.20
2023-05-01T21:40:59.700Z,101153.58
2023-05-01T21:44:36.851Z,101154.48
2023-05-01T21:48:16.569Z,101153.08
2023-05-01T21:51:52.918Z,101153.23
2023-05-01T21:55:31.478Z,101150.59
2023-05-01T22:02:48.683Z,101146.42
2023-05-01T22:06:26.180Z,101148.38
2023-05-01T22:10:01.865Z,101144.36
2023-05-01T22:13:38.417Z,101140.16
2023-05-01T22:17:17.786Z,101139.64
2023-05-01T22:20:54.182Z,101137.69
2023-05-01T22:24:31.766Z,101135.02
2023-05-01T22:28:09.611Z,101132.54
2023-05-01T22:31:47.708Z,101133.75
2023-05-01T22:35:24.575Z,101128.42
2023-05-01T22:42:40.257Z,101113.80
2023-05-01T22:46:17.819Z,101109.27
2023-05-01T22:49:55.135Z,101108.76
2023-05-01T22:53:33.649Z,101105.31
2023-05-01T22:57:10.679Z,101105.67
2023-05-01T23:00:48.355Z,101100.80
2023-05-01T23:08:03.763Z,101092.05
2023-05-01T23:11:41.780Z,101090.68
2023-05-01T23:15:24.646Z,101087.86
2023-05-01T23:18:56.858Z,101083.81
2023-05-01T23:22:38.245Z,101076.97
2023-05-01T23:26:26.087Z,101073.98
2023-05-01T23:29:55.061Z,101070.99
2023-05-01T23:33:39.948Z,101066.59
2023-05-01T23:37:05.206Z,101061.50
2023-05-01T23:40:43.782Z,101060.61
2023-05-01T23:44:20.604Z,101054.45
2023-05-01T23:47:58.960Z,101052.49
2023-05-01T23:51:35.965Z,101045.44
2023-05-01T23:55:13.702Z,101041.36
